Flight Track Log - Related Links

Times and Time Zones

All times are in EDT time to prevent confusion due to time zone crossing. See the AAL2384 flight status page for this flight to view local times or setup timezone preferences in your user account.

Time Position Orientation Groundspeed Altitude Reporting Facility
EDT Latitude Longitude Course Direction KTS MPH feet Rate Location/Type
Thu 10:23:45 PM 32.9167 -97.0333 357° North 143 165 1,600  Level Dallas / Fort Worth TRACON
Thu 10:24:51 PM 32.9667 -97.0333 360° North 209 241 4,700 2,571 Climbing Dallas / Fort Worth TRACON
Thu 10:25:51 PM 33.0167 -97.0167 16° North 237 273 7,000 2,250 Climbing Dallas / Fort Worth TRACON
Thu 10:26:51 PM 33.1000 -97.0167 360° North 300 345 9,200 2,400 Climbing Dallas / Fort Worth TRACON
Thu 10:27:00 PM 33.0155 -96.8000 North  Level FlightAware Approximate
Thu 10:27:51 PM 33.1667 -96.9667 32° Northeast 318 366 11,800  Level Dallas / Fort Worth TRACON
Thu 10:28:00 PM 33.1455 -96.8056 357° North  Level FlightAware Approximate
Thu 10:28:15 PM 33.2042 -96.9592 10° North 313 360 13,100  Level Fort Worth Center
Thu 10:29:00 PM 33.2754 -96.8149 357° North  Level FlightAware Approximate
Thu 10:29:15 PM 33.2769 -96.9164 26° Northeast 323 372 15,100  Level Fort Worth Center
Thu 10:30:15 PM 33.3769 -96.8661 23° Northeast 435 501 17,200 1,500 Climbing Fort Worth Center
Thu 10:31:15 PM 33.4603 -96.8183 26° Northeast 377 434 18,100 1,200 Climbing Fort Worth Center
Thu 10:32:15 PM 33.5747 -96.7453 28° Northeast 394 453 19,600 1,600 Climbing Fort Worth Center
Thu 10:33:15 PM 33.6703 -96.6822 29° Northeast 419 482 21,300 1,700 Climbing Fort Worth Center
Thu 10:34:15 PM 33.7950 -96.6036 28° Northeast 439 505 23,000 1,700 Climbing Fort Worth Center
Thu 10:35:15 PM 33.9031 -96.5325 29° Northeast 446 513 24,700 1,600 Climbing Fort Worth Center
Thu 10:36:15 PM 34.0300 -96.4761 20° North 456 525 26,200 1,450 Climbing Fort Worth Center
Thu 10:37:15 PM 34.1528 -96.4197 21° North 467 537 27,600 1,300 Climbing Fort Worth Center
Thu 10:38:15 PM 34.2836 -96.3578 21° North 479 551 28,800 1,250 Climbing Fort Worth Center
Thu 10:39:15 PM 34.4125 -96.3058 18° North 485 558 30,100 1,300 Climbing Fort Worth Center
Thu 10:40:15 PM 34.5414 -96.2386 23° Northeast 485 558 31,400 1,300 Climbing Fort Worth Center
Thu 10:41:15 PM 34.6594 -96.1539 31° Northeast 485 558 32,700 800 Climbing Fort Worth Center
Thu 10:42:15 PM 34.7775 -96.0711 30° Northeast 485 558 33,000 250 Climbing Fort Worth Center
Thu 10:43:15 PM 34.8933 -95.9783 33° Northeast 490 564 33,200 550 Climbing Fort Worth Center
Thu 10:44:15 PM 35.0069 -95.8850 34° Northeast 490 564 34,100 800 Climbing Fort Worth Center
Thu 10:45:15 PM 35.1206 -95.7892 35° Northeast 490 564 34,800 450 Climbing Fort Worth Center
Thu 10:46:15 PM 35.2211 -95.6753 43° Northeast 490 564 35,000 100 Climbing Fort Worth Center
Thu 10:47:15 PM 35.3258 -95.5636 41° Northeast 490 564 35,000  Level Fort Worth Center
Thu 10:48:15 PM 35.4306 -95.4519 41° Northeast 495 570 35,000  Level Fort Worth Center
Thu 10:49:08 PM 35.5203 -95.3567 41° Northeast 489 563 35,000  Level Memphis Center
Thu 10:50:18 PM 35.6403 -95.2256 42° Northeast 496 571 35,000  Level Kansas City Center
Thu 10:51:19 PM 35.7447 -95.1136 41° Northeast 498 573 35,000  Level Kansas City Center
Thu 10:52:08 PM 35.8317 -95.0194 41° Northeast 494 568 35,000  Level Memphis Center
Thu 10:53:08 PM 35.9272 -94.9197 40° Northeast 494 568 35,000  Level Memphis Center
Thu 10:54:08 PM 36.0314 -94.8050 42° Northeast 494 568 35,000  Level Memphis Center
Thu 10:55:08 PM 36.1353 -94.6950 41° Northeast 494 568 35,000  Level Memphis Center
Thu 10:55:24 PM 36.1575 -94.6681 44° Northeast 495 570 35,000  Level Kansas City Center
Thu 10:56:08 PM 36.2372 -94.5819 41° Northeast 494 568 35,000  Level Memphis Center
Thu 10:58:27 PM 36.4875 -94.3069 41° Northeast 495 570 35,000  Level Kansas City Center
Thu 10:59:28 PM 36.5903 -94.1933 42° Northeast 495 570 35,000  Level Kansas City Center
Thu 11:00:29 PM 36.6922 -94.0806 42° Northeast 492 566 35,000  Level Kansas City Center
Thu 11:01:31 PM 36.7942 -93.9667 42° Northeast 492 566 35,000  Level Kansas City Center
Thu 11:02:32 PM 36.8964 -93.8525 42° Northeast 491 565 35,000  Level Kansas City Center
Thu 11:03:33 PM 36.9928 -93.7453 42° Northeast 489 563 35,000  Level Kansas City Center
Thu 11:04:34 PM 37.0931 -93.6289 43° Northeast 489 563 35,000  Level Kansas City Center
Thu 11:05:35 PM 37.1944 -93.5147 42° Northeast 488 562 35,000  Level Kansas City Center
Thu 11:06:36 PM 37.2989 -93.4014 41° Northeast 491 565 35,000  Level Kansas City Center
Thu 11:07:37 PM 37.4033 -93.2908 40° Northeast 490 564 35,000  Level Kansas City Center
Thu 11:08:38 PM 37.5347 -93.1675 37° Northeast 488 562 35,000  Level Kansas City Center
Thu 11:09:39 PM 37.6472 -93.0656 36° Northeast 492 566 35,000  Level Kansas City Center
Thu 11:10:41 PM 37.7575 -92.9625 36° Northeast 492 566 35,000  Level Kansas City Center
Thu 11:11:42 PM 37.8681 -92.8589 36° Northeast 491 565 35,000  Level Kansas City Center
Thu 11:12:43 PM 37.9786 -92.7553 36° Northeast 489 563 35,000  Level Kansas City Center
Thu 11:13:44 PM 38.0833 -92.6556 37° Northeast 494 568 35,000  Level Kansas City Center
Thu 11:14:45 PM 38.2053 -92.5417 36° Northeast 498 573 35,000  Level Kansas City Center
Thu 11:15:46 PM 38.3181 -92.4356 36° Northeast 498 573 35,000  Level Kansas City Center
Thu 11:16:47 PM 38.4292 -92.3294 37° Northeast 494 568 35,000  Level Kansas City Center
Thu 11:17:48 PM 38.5408 -92.2217 37° Northeast 497 572 35,000 -295 Level Kansas City Center
Thu 11:18:49 PM 38.6525 -92.1142 37° Northeast 498 573 34,400 -590 Descending Kansas City Center
Thu 11:19:50 PM 38.7639 -92.0069 37° Northeast 498 573 33,800 -590 Descending Kansas City Center
Thu 11:20:51 PM 38.8761 -91.8992 37° Northeast 500 575 33,200 -393 Descending Kansas City Center
Thu 11:21:52 PM 38.9872 -91.7911 37° Northeast 499 574 33,000 -98 Descending Kansas City Center
Thu 11:22:53 PM 39.1050 -91.6756 37° Northeast 503 579 33,000  Level Kansas City Center
Thu 11:23:54 PM 39.2153 -91.5700 37° Northeast 497 572 33,000  Level Kansas City Center
Thu 11:24:55 PM 39.3267 -91.4597 37° Northeast 500 575 33,000  Level Kansas City Center
Thu 11:25:56 PM 39.4367 -91.3517 37° Northeast 499 574 33,000  Level Kansas City Center
Thu 11:26:57 PM 39.5464 -91.2425 37° Northeast 497 572 33,000  Level Kansas City Center
Thu 11:27:58 PM 39.6569 -91.1331 37° Northeast 498 573 33,000  Level Kansas City Center
Thu 11:28:59 PM 39.7572 -91.0311 38° Northeast 497 572 33,000  Level Kansas City Center
Thu 11:30:00 PM 39.8822 -90.9061 37° Northeast 497 572 33,000  Level Kansas City Center
Thu 11:31:01 PM 39.9919 -90.7983 37° Northeast 495 570 33,000 -148 Level Kansas City Center
Thu 11:32:02 PM 40.0992 -90.6881 38° Northeast 492 566 32,700 -605 Descending Kansas City Center
Thu 11:33:00 PM 40.2064 -90.5783 38° Northeast 489 563 31,800 -908 Descending Chicago Center
Thu 11:34:01 PM 40.3142 -90.4683 38° Northeast 490 564 30,900 -934 Descending Chicago Center
Thu 11:35:02 PM 40.4072 -90.3403 46° Northeast 488 562 29,900 -934 Descending Chicago Center
Thu 11:36:03 PM 40.4953 -90.2075 49° Northeast 480 552 29,000 -443 Descending Chicago Center
Thu 11:37:04 PM 40.5822 -90.0778 49° Northeast 475 547 29,000  Level Chicago Center
Thu 11:38:04 PM 40.6711 -89.9483 48° Northeast 478 550 29,000  Level Chicago Center
Thu 11:39:05 PM 40.7647 -89.8203 46° Northeast 483 556 29,000 -984 Level Chicago Center
Thu 11:40:06 PM 40.8528 -89.6889 48° Northeast 479 551 27,000 -2,164 Descending Chicago Center
Thu 11:41:07 PM 40.9394 -89.5625 48° Northeast 467 537 24,600 -2,508 Descending Chicago Center
Thu 11:42:08 PM 41.0308 -89.4292 48° Northeast 448 516 21,900 -2,508 Descending Chicago Center
Thu 11:43:09 PM 41.1078 -89.3172 48° Northeast 416 479 19,500 -2,262 Descending Chicago Center
Thu 11:44:10 PM 41.1800 -89.2089 48° Northeast 395 455 17,300 -2,361 Descending Chicago Center
Thu 11:45:11 PM 41.2572 -89.0919 49° Northeast 390 449 14,700 -2,231 Descending Chicago Center
Thu 11:46:11 PM 41.3247 -88.9875 49° Northeast 375 432 12,800 -1,835 Descending Chicago Center
Thu 11:47:12 PM 41.3894 -88.8914 48° Northeast 354 407 11,000 -885 Descending Chicago Center
Thu 11:48:13 PM 41.4531 -88.7958 48° Northeast 345 397 11,000 -49 Level Chicago Center
Thu 11:49:14 PM 41.4994 -88.6861 61° Northeast 346 398 10,900 49 Descending Chicago Center
Thu 11:50:15 PM 41.5522 -88.5831 56° Northeast 347 399 11,100 49 Climbing Chicago Center
Thu 11:51:16 PM 41.6369 -88.5317 24° Northeast 330 380 11,000 -893 Descending Chicago Center
Thu 11:52:16 PM 41.6986 -88.4653 39° Northeast 298 343 9,300 -1,488 Descending Chicago Center
Thu 11:53:17 PM 41.7453 -88.3778 54° Northeast 288 331 8,000 -1,180 Descending Chicago Center
Thu 11:54:18 PM 41.7903 -88.2894 56° Northeast 286 329 6,900 -1,180 Descending Chicago Center
Thu 11:55:19 PM 41.8536 -88.2328 34° Northeast 291 335 5,600 -1,140 Descending Chicago Center
Thu 11:56:19 PM 41.9347 -88.2139 10° North 295 339 4,600 -843 Descending Chicago Center
Thu 11:57:20 PM 41.9686 -88.1497 55° Northeast 253 291 3,900 -792 Descending Chicago Center
Thu 11:58:05 PM 41.9667 -88.1000 93° East 163 188 3,200 -970 Descending Chicago TRACON
Thu 11:58:59 PM 41.9667 -88.0333 90° East 168 193 2,300 -895 Descending Chicago TRACON
Thu 11:59:59 PM 41.9667 -87.9833 90° East 137 158 1,500 -800 Descending Chicago TRACON

Login

Don't have an account? Register now (free) for customized features, flight alerts, and more!